createdAt,value
2019-03-11T00:01:22.433Z,8.30
2019-03-11T00:03:50.925Z,8.40
2019-03-11T00:06:19.359Z,8.40
2019-03-11T00:08:47.686Z,8.30
2019-03-11T00:11:16.092Z,8.30
2019-03-11T00:13:43.937Z,8.20
2019-03-11T00:16:12.110Z,8.20
2019-03-11T00:18:40.394Z,8.10
2019-03-11T00:21:08.769Z,8.10
2019-03-11T00:23:37.171Z,8.10
2019-03-11T00:26:05.209Z,8.10
2019-03-11T00:28:33.794Z,8.10
2019-03-11T00:31:02.299Z,8.10
2019-03-11T00:33:30.354Z,8.10
2019-03-11T00:35:59.066Z,8.10
2019-03-11T00:38:27.308Z,8.10
2019-03-11T00:40:55.781Z,8.20
2019-03-11T00:43:23.869Z,8.20
2019-03-11T00:45:52.538Z,8.10
2019-03-11T00:48:20.919Z,8.10
2019-03-11T00:50:49.294Z,8.10
2019-03-11T00:53:17.388Z,8.00
2019-03-11T00:55:46.056Z,8.00
2019-03-11T00:58:14.137Z,8.00
2019-03-11T01:00:43.042Z,8.00
2019-03-11T01:03:10.889Z,8.00
2019-03-11T01:05:39.580Z,8.00
2019-03-11T01:08:07.655Z,8.00
2019-03-11T01:10:36.006Z,8.00
2019-03-11T01:13:04.462Z,8.00
2019-03-11T01:15:32.893Z,8.00
2019-03-11T01:18:00.851Z,7.90
2019-03-11T01:20:29.013Z,7.90
2019-03-11T01:22:56.989Z,7.90
2019-03-11T01:25:25.713Z,7.90
2019-03-11T01:27:53.845Z,7.80
2019-03-11T01:30:22.430Z,7.80
2019-03-11T01:32:53.122Z,7.70
2019-03-11T01:35:21.023Z,7.70
2019-03-11T01:37:49.445Z,7.60
2019-03-11T01:40:17.484Z,7.60
2019-03-11T01:42:45.653Z,7.50
2019-03-11T01:45:14.039Z,7.50
2019-03-11T01:47:42.614Z,7.50
2019-03-11T01:50:11.411Z,7.40
2019-03-11T01:52:39.732Z,7.40
2019-03-11T01:55:07.953Z,7.50
2019-03-11T01:57:36.141Z,7.60
2019-03-11T02:00:05.322Z,7.50
2019-03-11T02:02:33.586Z,7.60
2019-03-11T02:05:02.245Z,7.60
2019-03-11T02:07:30.251Z,7.60
2019-03-11T02:09:58.358Z,7.50
2019-03-11T02:12:26.437Z,7.50
2019-03-11T02:14:54.733Z,7.50
2019-03-11T02:17:22.850Z,7.40
2019-03-11T02:19:51.205Z,7.40
2019-03-11T02:22:19.321Z,7.30
2019-03-11T02:24:47.488Z,7.30
2019-03-11T02:27:15.483Z,7.30
2019-03-11T02:29:43.620Z,7.20
2019-03-11T02:32:11.594Z,7.20
2019-03-11T02:34:39.991Z,7.20
2019-03-11T02:37:08.047Z,7.10
2019-03-11T02:39:36.160Z,7.10
2019-03-11T02:42:04.296Z,7.10
2019-03-11T02:44:32.258Z,7.10
2019-03-11T02:47:00.458Z,7.00
2019-03-11T02:49:28.695Z,7.00
2019-03-11T02:51:56.793Z,7.00
2019-03-11T02:54:25.452Z,7.10
2019-03-11T02:56:53.533Z,7.00
2019-03-11T02:59:21.927Z,7.00
2019-03-11T03:02:15.614Z,6.90
2019-03-11T03:04:50.530Z,6.90
2019-03-11T03:07:18.998Z,6.80
2019-03-11T03:09:47.061Z,6.80
2019-03-11T03:12:15.274Z,6.80
2019-03-11T03:14:43.221Z,6.80
2019-03-11T03:17:11.919Z,6.70
2019-03-11T03:19:39.972Z,6.60
2019-03-11T03:22:08.651Z,6.70
2019-03-11T03:24:36.756Z,6.70
2019-03-11T03:27:05.422Z,6.70
2019-03-11T03:29:33.505Z,6.70
2019-03-11T03:32:02.178Z,6.60
2019-03-11T03:34:30.668Z,6.60
2019-03-11T03:36:58.841Z,6.60
2019-03-11T03:39:27.006Z,6.60
2019-03-11T03:41:55.384Z,6.60
2019-03-11T03:44:23.757Z,6.70
2019-03-11T03:46:52.120Z,6.70
2019-03-11T03:49:20.214Z,6.70
2019-03-11T03:51:48.902Z,6.70
2019-03-11T03:54:16.967Z,6.70
2019-03-11T03:56:45.455Z,6.70
2019-03-11T03:59:14.027Z,6.70
2019-03-11T04:01:42.123Z,6.60
2019-03-11T04:04:10.258Z,6.50
2019-03-11T04:06:38.292Z,6.50
2019-03-11T04:09:06.657Z,6.40
2019-03-11T04:11:34.991Z,6.40
2019-03-11T04:14:03.398Z,6.40
2019-03-11T04:16:32.439Z,6.30
2019-03-11T04:19:01.063Z,6.30
2019-03-11T04:21:29.146Z,6.20
2019-03-11T04:24:05.176Z,6.20
2019-03-11T04:26:33.290Z,6.20
2019-03-11T04:29:01.932Z,6.20
2019-03-11T04:31:29.715Z,6.10
2019-03-11T04:33:57.793Z,6.20
2019-03-11T04:36:26.181Z,6.20
2019-03-11T04:39:09.431Z,6.20
2019-03-11T04:41:37.349Z,6.10
2019-03-11T04:44:06.912Z,6.00
2019-03-11T04:46:35.064Z,6.00
2019-03-11T04:49:03.207Z,6.10
2019-03-11T04:51:31.787Z,6.20
2019-03-11T04:54:00.556Z,6.30
2019-03-11T04:56:28.530Z,6.30
2019-03-11T04:59:10.208Z,6.40
2019-03-11T05:01:38.314Z,6.40
2019-03-11T05:04:06.838Z,6.40
2019-03-11T05:06:37.354Z,6.40
2019-03-11T05:09:05.797Z,6.40
2019-03-11T05:11:34.187Z,6.40
2019-03-11T05:14:02.623Z,6.50
2019-03-11T05:16:30.675Z,6.40
2019-03-11T05:18:59.018Z,6.40
2019-03-11T05:21:27.388Z,6.40
2019-03-11T05:23:55.780Z,6.40
2019-03-11T05:26:24.146Z,6.40
2019-03-11T05:28:52.238Z,6.40
2019-03-11T05:31:20.310Z,6.40
2019-03-11T05:33:48.730Z,6.40
2019-03-11T05:36:16.754Z,6.30
2019-03-11T05:38:44.801Z,6.40
2019-03-11T05:41:12.977Z,6.40
2019-03-11T05:43:40.948Z,6.40
2019-03-11T05:46:11.680Z,6.40
2019-03-11T05:48:38.766Z,6.40
2019-03-11T05:51:07.007Z,6.40
2019-03-11T05:53:35.605Z,6.40
2019-03-11T05:56:04.095Z,6.50
2019-03-11T05:58:33.407Z,6.40
2019-03-11T06:01:01.992Z,6.40
2019-03-11T06:03:30.446Z,6.30
2019-03-11T06:05:58.538Z,6.40
2019-03-11T06:08:26.788Z,6.40
2019-03-11T06:10:54.787Z,6.40
2019-03-11T06:13:22.755Z,6.50
2019-03-11T06:15:50.803Z,6.50
2019-03-11T06:18:38.128Z,6.40
2019-03-11T06:21:24.323Z,6.40
2019-03-11T06:23:52.213Z,6.40
2019-03-11T06:26:20.451Z,6.40
2019-03-11T06:28:48.954Z,6.40
2019-03-11T06:31:17.347Z,6.40
2019-03-11T06:33:45.748Z,6.40
2019-03-11T06:36:13.794Z,6.40
2019-03-11T06:38:42.447Z,6.40
2019-03-11T06:41:11.146Z,6.40
2019-03-11T06:43:39.624Z,6.40
2019-03-11T06:46:07.698Z,6.40
2019-03-11T06:48:36.335Z,6.40
2019-03-11T06:51:04.657Z,6.40
2019-03-11T06:53:35.502Z,6.40
2019-03-11T06:56:06.019Z,6.50
2019-03-11T06:58:34.103Z,6.50
2019-03-11T07:01:02.518Z,6.50
2019-03-11T07:03:30.655Z,6.50
2019-03-11T07:05:58.713Z,6.50
2019-03-11T07:08:26.393Z,6.60
2019-03-11T07:10:54.139Z,6.80
2019-03-11T07:13:22.656Z,6.80
2019-03-11T07:15:50.706Z,6.90
2019-03-11T07:18:18.881Z,7.00
2019-03-11T07:20:47.142Z,7.20
2019-03-11T07:23:15.513Z,7.40
2019-03-11T07:25:43.708Z,7.60
2019-03-11T07:28:11.657Z,7.60
2019-03-11T07:30:40.416Z,7.70
2019-03-11T07:33:08.636Z,7.70
2019-03-11T07:35:36.485Z,7.80
2019-03-11T07:38:04.994Z,7.80
2019-03-11T07:40:32.942Z,7.80
2019-03-11T07:43:01.613Z,7.80
2019-03-11T07:45:29.865Z,7.80
2019-03-11T07:47:58.383Z,7.90
2019-03-11T07:50:26.497Z,7.90
2019-03-11T07:52:54.849Z,7.90
2019-03-11T07:55:22.908Z,7.80
2019-03-11T07:57:50.983Z,7.90
2019-03-11T08:00:19.065Z,8.00
2019-03-11T08:02:47.150Z,8.30
2019-03-11T08:05:15.491Z,8.80
2019-03-11T08:07:43.570Z,9.50
2019-03-11T08:10:11.999Z,9.70
2019-03-11T08:12:40.015Z,9.70
2019-03-11T08:15:09.965Z,9.50
2019-03-11T08:17:38.054Z,9.80
2019-03-11T08:20:06.950Z,10.10
2019-03-11T08:22:35.074Z,10.20
2019-03-11T08:25:03.758Z,10.00
2019-03-11T08:27:31.646Z,10.30
2019-03-11T08:30:00.008Z,10.50
2019-03-11T08:32:28.365Z,10.50
2019-03-11T08:34:56.569Z,11.10
2019-03-11T08:37:25.125Z,11.20
2019-03-11T08:39:53.228Z,11.70
2019-03-11T08:42:23.337Z,11.80
2019-03-11T08:44:51.198Z,11.60
2019-03-11T08:47:19.599Z,11.30
2019-03-11T08:49:47.737Z,11.00
2019-03-11T08:52:15.743Z,10.90
2019-03-11T08:54:45.425Z,10.40
2019-03-11T08:57:13.132Z,9.90
2019-03-11T08:59:41.279Z,9.70
2019-03-11T09:02:19.499Z,9.60
2019-03-11T09:04:57.481Z,9.30
2019-03-11T09:07:35.761Z,9.00
2019-03-11T09:10:12.551Z,8.60
2019-03-11T09:12:44.308Z,8.30
2019-03-11T09:15:21.799Z,8.30
2019-03-11T09:18:00.122Z,8.40
2019-03-11T09:20:38.584Z,9.00
2019-03-11T09:23:14.706Z,10.00
2019-03-11T09:25:51.926Z,10.00
2019-03-11T09:28:23.822Z,9.80
2019-03-11T09:30:52.284Z,10.00
2019-03-11T09:33:20.578Z,10.40
2019-03-11T09:35:49.182Z,10.70
2019-03-11T09:38:18.299Z,10.40
2019-03-11T09:40:46.177Z,9.70
2019-03-11T09:43:14.898Z,9.00
2019-03-11T09:45:43.314Z,9.20
2019-03-11T09:48:11.403Z,9.70
2019-03-11T09:50:39.675Z,10.40
2019-03-11T09:53:08.033Z,10.60
2019-03-11T09:55:36.104Z,10.80
2019-03-11T09:58:04.658Z,11.20
2019-03-11T10:00:32.872Z,11.90
2019-03-11T10:03:00.997Z,11.80
2019-03-11T10:05:29.216Z,11.60
2019-03-11T10:07:57.356Z,11.60
2019-03-11T10:10:25.462Z,11.40
2019-03-11T10:12:53.841Z,10.80
2019-03-11T10:15:21.748Z,11.20
2019-03-11T10:17:49.899Z,11.30
2019-03-11T10:20:18.191Z,11.60
2019-03-11T10:23:38.855Z,12.00
2019-03-11T10:26:22.121Z,11.20
2019-03-11T10:28:53.543Z,10.70
2019-03-11T10:31:21.732Z,10.80
2019-03-11T10:33:50.002Z,10.70
2019-03-11T10:36:18.062Z,10.50
2019-03-11T10:38:46.681Z,10.40
2019-03-11T10:41:18.068Z,10.80
2019-03-11T10:43:45.747Z,11.40
2019-03-11T10:46:13.469Z,11.60
2019-03-11T10:48:41.622Z,11.50
2019-03-11T10:51:12.665Z,11.20
2019-03-11T10:53:40.697Z,11.80
2019-03-11T10:56:08.666Z,12.20
2019-03-11T10:58:36.905Z,12.10
2019-03-11T11:01:09.833Z,12.50
2019-03-11T11:03:38.031Z,12.60
2019-03-11T11:06:06.029Z,11.90
2019-03-11T11:08:34.403Z,11.80
2019-03-11T11:11:05.537Z,11.90
2019-03-11T11:13:33.998Z,12.00
2019-03-11T11:16:02.168Z,11.90
2019-03-11T11:18:33.178Z,11.80
2019-03-11T11:21:03.798Z,11.30
2019-03-11T11:23:31.499Z,11.10
2019-03-11T11:26:00.714Z,11.10
2019-03-11T11:28:29.342Z,11.80
2019-03-11T11:30:59.921Z,12.40
2019-03-11T11:33:31.815Z,11.70
2019-03-11T11:35:59.558Z,11.20
2019-03-11T11:38:34.512Z,11.20
2019-03-11T11:41:05.116Z,11.10
2019-03-11T11:43:34.154Z,10.70
2019-03-11T11:46:06.483Z,10.70
2019-03-11T11:48:34.925Z,10.70
2019-03-11T11:51:05.149Z,10.30
2019-03-11T11:53:35.122Z,9.90
2019-03-11T11:56:03.161Z,9.50
2019-03-11T11:58:31.637Z,9.00
2019-03-11T12:00:59.697Z,9.10
2019-03-11T12:03:29.393Z,9.60
2019-03-11T12:05:57.074Z,10.10
2019-03-11T12:08:28.203Z,10.40
2019-03-11T12:10:56.303Z,10.30
2019-03-11T12:13:24.247Z,10.00
2019-03-11T12:15:52.582Z,10.10
2019-03-11T12:18:20.695Z,10.30
2019-03-11T12:20:49.272Z,10.10
2019-03-11T12:23:17.385Z,10.20
2019-03-11T12:25:45.446Z,10.40
2019-03-11T12:28:13.545Z,10.40
2019-03-11T12:30:42.177Z,10.60
2019-03-11T12:33:10.252Z,10.70
2019-03-11T12:35:38.629Z,10.50
2019-03-11T12:38:07.027Z,9.80
2019-03-11T12:40:35.201Z,9.50
2019-03-11T12:43:03.229Z,9.20
2019-03-11T12:45:31.531Z,9.10
2019-03-11T12:47:59.709Z,9.10
2019-03-11T12:50:27.978Z,9.30
2019-03-11T12:52:56.041Z,9.10
2019-03-11T12:55:24.454Z,8.90
2019-03-11T12:57:52.812Z,8.80
2019-03-11T13:00:20.902Z,8.90
2019-03-11T13:02:49.085Z,9.00
2019-03-11T13:05:17.533Z,9.00
2019-03-11T13:07:47.610Z,9.10
2019-03-11T13:10:16.997Z,9.30
2019-03-11T13:12:47.732Z,9.20
2019-03-11T13:15:15.981Z,8.60
2019-03-11T13:17:45.252Z,8.40
2019-03-11T13:20:16.531Z,8.40
2019-03-11T13:22:45.122Z,8.50
2019-03-11T13:25:13.620Z,8.50
2019-03-11T13:27:41.809Z,8.50
2019-03-11T13:30:10.860Z,8.50
2019-03-11T13:32:38.721Z,8.60
2019-03-11T13:35:07.142Z,8.50
2019-03-11T13:37:35.175Z,8.50
2019-03-11T13:40:03.925Z,8.30
2019-03-11T13:42:31.967Z,8.30
2019-03-11T13:44:59.994Z,8.40
2019-03-11T13:47:28.181Z,8.50
2019-03-11T13:49:56.145Z,8.60
2019-03-11T13:52:24.367Z,8.80
2019-03-11T13:54:52.284Z,9.10
2019-03-11T13:57:20.466Z,9.20
2019-03-11T13:59:48.540Z,9.20
2019-03-11T14:02:16.796Z,8.90
2019-03-11T14:04:47.653Z,8.80
2019-03-11T14:07:15.949Z,8.90
2019-03-11T14:09:46.505Z,8.90
2019-03-11T14:12:14.806Z,9.00
2019-03-11T14:14:42.697Z,9.10
2019-03-11T14:17:17.048Z,9.10
2019-03-11T14:19:46.563Z,8.90
2019-03-11T14:22:14.681Z,9.00
2019-03-11T14:24:45.455Z,8.80
2019-03-11T14:27:13.556Z,8.70
2019-03-11T14:29:42.206Z,8.70
2019-03-11T14:32:10.614Z,8.70
2019-03-11T14:34:38.929Z,8.80
2019-03-11T14:37:07.333Z,8.80
2019-03-11T14:39:35.387Z,8.80
2019-03-11T14:42:04.101Z,8.70
2019-03-11T14:44:32.142Z,8.80
2019-03-11T14:47:00.314Z,8.90
2019-03-11T14:49:28.303Z,8.90
2019-03-11T14:51:56.968Z,9.00
2019-03-11T14:54:25.114Z,9.00
2019-03-11T14:56:53.213Z,9.10
2019-03-11T14:59:21.494Z,9.00
2019-03-11T15:01:49.601Z,9.10
2019-03-11T15:04:17.730Z,9.10
2019-03-11T15:06:46.034Z,9.10
2019-03-11T15:09:14.472Z,9.00
2019-03-11T15:11:50.087Z,9.00
2019-03-11T15:14:18.853Z,9.00
2019-03-11T15:16:46.898Z,9.00
2019-03-11T15:19:15.317Z,9.00
2019-03-11T15:21:43.646Z,8.90
2019-03-11T15:24:11.712Z,8.90
2019-03-11T15:26:39.829Z,8.90
2019-03-11T15:29:07.902Z,8.90
2019-03-11T15:31:35.972Z,8.90
2019-03-11T15:34:04.523Z,8.80
2019-03-11T15:36:33.700Z,8.80
2019-03-11T15:39:01.709Z,8.80
2019-03-11T15:41:29.439Z,8.70
2019-03-11T15:43:57.116Z,8.80
2019-03-11T15:46:24.805Z,8.80
2019-03-11T15:48:52.589Z,8.80
2019-03-11T15:51:20.479Z,8.80
2019-03-11T15:53:48.094Z,8.90
2019-03-11T15:56:16.661Z,8.90
2019-03-11T15:58:44.798Z,9.00
2019-03-11T16:01:13.426Z,9.00
2019-03-11T16:03:41.494Z,9.00
2019-03-11T16:06:18.131Z,9.10
2019-03-11T16:08:46.452Z,9.10
2019-03-11T16:11:14.673Z,9.10
2019-03-11T16:13:45.990Z,9.10
2019-03-11T16:16:14.760Z,9.10
2019-03-11T16:18:43.497Z,9.20
2019-03-11T16:21:11.710Z,9.10
2019-03-11T16:23:39.474Z,9.10
2019-03-11T16:26:07.173Z,9.00
2019-03-11T16:28:34.854Z,8.90
2019-03-11T16:31:16.673Z,8.80
2019-03-11T16:33:44.761Z,8.70
2019-03-11T16:36:12.829Z,8.70
2019-03-11T16:38:41.557Z,8.60
2019-03-11T16:41:10.214Z,8.60
2019-03-11T16:43:38.630Z,8.50
2019-03-11T16:46:06.971Z,8.50
2019-03-11T16:48:35.046Z,8.40
2019-03-11T16:51:03.436Z,8.40
2019-03-11T16:53:31.805Z,8.30
2019-03-11T16:55:59.966Z,8.30
2019-03-11T16:58:27.934Z,8.30
2019-03-11T17:00:58.994Z,8.20
2019-03-11T17:03:27.457Z,8.20
2019-03-11T17:05:55.521Z,8.10
2019-03-11T17:08:24.246Z,8.10
2019-03-11T17:10:54.343Z,8.10
2019-03-11T17:13:22.525Z,8.00
2019-03-11T17:15:50.987Z,8.00
2019-03-11T17:18:21.926Z,7.90
2019-03-11T17:20:50.009Z,7.90
2019-03-11T17:23:18.484Z,7.80
2019-03-11T17:25:47.097Z,7.80
2019-03-11T17:28:15.546Z,7.70
2019-03-11T17:30:43.649Z,7.70
2019-03-11T17:33:11.941Z,7.60
2019-03-11T17:35:40.266Z,7.60
2019-03-11T17:38:08.003Z,7.50
2019-03-11T17:40:35.741Z,7.50
2019-03-11T17:43:28.718Z,7.50
2019-03-11T17:46:20.905Z,7.40
2019-03-11T17:48:48.705Z,7.40
2019-03-11T17:51:19.317Z,7.40
2019-03-11T17:53:50.281Z,7.20
2019-03-11T17:56:22.459Z,7.30
2019-03-11T17:58:50.573Z,7.20
2019-03-11T18:01:18.854Z,7.20
2019-03-11T18:03:46.926Z,7.20
2019-03-11T18:06:14.818Z,7.20
2019-03-11T18:08:46.243Z,7.10
2019-03-11T18:11:14.323Z,7.00
2019-03-11T18:13:46.049Z,6.90
2019-03-11T18:16:14.242Z,7.00
2019-03-11T18:18:42.651Z,6.90
2019-03-11T18:21:12.936Z,7.00
2019-03-11T18:23:41.792Z,6.90
2019-03-11T18:26:11.936Z,6.90
2019-03-11T18:28:39.542Z,6.90
2019-03-11T18:31:07.628Z,6.80
2019-03-11T18:33:35.950Z,6.80
2019-03-11T18:36:07.726Z,6.70
2019-03-11T18:38:35.586Z,6.70
2019-03-11T18:41:04.058Z,6.70
2019-03-11T18:43:42.208Z,6.70
2019-03-11T18:46:02.075Z,6.70
2019-03-11T18:48:30.468Z,6.60
2019-03-11T18:51:10.039Z,6.60
2019-03-11T18:53:28.752Z,6.50
2019-03-11T18:55:57.399Z,6.50
2019-03-11T18:58:25.823Z,6.40
2019-03-11T19:00:54.226Z,6.30
2019-03-11T19:03:22.639Z,6.30
2019-03-11T19:05:51.686Z,6.10
2019-03-11T19:08:19.686Z,6.00
2019-03-11T19:10:48.926Z,5.90
2019-03-11T19:13:17.314Z,5.80
2019-03-11T19:15:45.418Z,5.80
2019-03-11T19:18:13.885Z,5.80
2019-03-11T19:20:46.321Z,5.80
2019-03-11T19:23:14.755Z,5.80
2019-03-11T19:25:43.409Z,5.80
2019-03-11T19:28:11.226Z,5.70
2019-03-11T19:30:38.930Z,5.70
2019-03-11T19:33:06.727Z,5.60
2019-03-11T19:35:34.451Z,5.50
2019-03-11T19:38:02.169Z,5.60
2019-03-11T19:40:30.226Z,5.50
2019-03-11T19:42:58.812Z,5.40
2019-03-11T19:45:26.841Z,5.40
2019-03-11T19:47:55.092Z,5.30
2019-03-11T19:50:23.581Z,5.10
2019-03-11T19:52:58.525Z,5.10
2019-03-11T19:55:22.183Z,5.20
2019-03-11T19:57:50.282Z,5.20
2019-03-11T20:00:19.270Z,5.10
2019-03-11T20:02:47.810Z,5.00
2019-03-11T20:05:17.308Z,4.90
2019-03-11T20:07:46.236Z,4.80
2019-03-11T20:10:15.077Z,4.80
2019-03-11T20:12:43.030Z,4.70
2019-03-11T20:15:11.495Z,4.50
2019-03-11T20:17:39.586Z,4.50
2019-03-11T20:20:11.111Z,4.40
2019-03-11T20:22:38.949Z,4.40
2019-03-11T20:25:09.962Z,4.30
2019-03-11T20:27:38.491Z,4.20
2019-03-11T20:30:09.761Z,4.10
2019-03-11T20:32:37.813Z,4.10
2019-03-11T20:35:06.073Z,4.20
2019-03-11T20:37:34.506Z,4.10
2019-03-11T20:40:02.729Z,4.00
2019-03-11T20:42:33.925Z,4.00
2019-03-11T20:45:00.908Z,3.90
2019-03-11T20:47:29.520Z,3.80
2019-03-11T20:49:57.659Z,3.70
2019-03-11T20:52:28.477Z,3.60
2019-03-11T20:54:56.018Z,3.60
2019-03-11T20:57:24.141Z,3.60
2019-03-11T20:59:52.343Z,3.50
2019-03-11T21:02:20.520Z,3.40
2019-03-11T21:04:49.082Z,3.30
2019-03-11T21:07:18.044Z,3.30
2019-03-11T21:09:46.131Z,3.30
2019-03-11T21:12:14.515Z,3.30
2019-03-11T21:14:42.607Z,3.30
2019-03-11T21:17:11.315Z,3.30
2019-03-11T21:19:39.686Z,3.30
2019-03-11T21:22:07.807Z,3.30
2019-03-11T21:24:38.106Z,3.30
2019-03-11T21:27:06.385Z,3.20
2019-03-11T21:29:38.846Z,3.20
2019-03-11T21:32:07.100Z,3.20
2019-03-11T21:34:35.301Z,3.10
2019-03-11T21:37:03.773Z,3.00
2019-03-11T21:39:31.959Z,3.00
2019-03-11T21:42:00.084Z,3.00
2019-03-11T21:44:29.049Z,2.90
2019-03-11T21:46:56.885Z,2.80
2019-03-11T21:49:24.914Z,2.70
2019-03-11T21:51:53.117Z,2.70
2019-03-11T21:54:21.757Z,2.60
2019-03-11T21:56:49.914Z,2.60
2019-03-11T21:59:18.317Z,2.60
2019-03-11T22:01:46.384Z,2.60
2019-03-11T22:04:14.581Z,2.50
2019-03-11T22:06:42.435Z,2.40
2019-03-11T22:09:11.019Z,2.40
2019-03-11T22:11:39.968Z,2.40
2019-03-11T22:14:08.181Z,2.30
2019-03-11T22:16:36.295Z,2.30
2019-03-11T22:19:04.333Z,2.20
2019-03-11T22:21:32.509Z,2.20
2019-03-11T22:24:00.479Z,2.20
2019-03-11T22:26:28.798Z,2.20
2019-03-11T22:28:56.711Z,2.30
2019-03-11T22:31:25.000Z,2.30
2019-03-11T22:33:53.163Z,2.30
2019-03-11T22:36:21.151Z,2.30
2019-03-11T22:38:49.814Z,2.20
2019-03-11T22:41:17.879Z,2.20
2019-03-11T22:43:45.778Z,2.20
2019-03-11T22:46:13.815Z,2.20
2019-03-11T22:48:41.916Z,2.20
2019-03-11T22:51:10.571Z,2.20
2019-03-11T22:53:38.953Z,2.20
2019-03-11T22:56:07.137Z,2.20
2019-03-11T22:58:38.168Z,2.00
2019-03-11T23:01:07.703Z,2.00
2019-03-11T23:03:35.962Z,1.90
2019-03-11T23:06:04.360Z,1.90
2019-03-11T23:08:33.055Z,1.90
2019-03-11T23:11:01.501Z,1.80
2019-03-11T23:13:29.906Z,1.80
2019-03-11T23:15:58.050Z,1.80
2019-03-11T23:18:26.043Z,1.80
2019-03-11T23:20:54.207Z,1.80
2019-03-11T23:23:22.481Z,1.80
2019-03-11T23:25:50.357Z,1.90
2019-03-11T23:28:18.806Z,1.80
2019-03-11T23:30:47.435Z,1.70
2019-03-11T23:33:15.495Z,1.70
2019-03-11T23:35:43.642Z,1.70
2019-03-11T23:38:11.842Z,1.60
2019-03-11T23:40:39.726Z,1.60
2019-03-11T23:43:07.854Z,1.60
2019-03-11T23:45:39.126Z,1.70
2019-03-11T23:48:07.718Z,1.70
2019-03-11T23:50:35.728Z,1.70
2019-03-11T23:53:03.933Z,1.70
2019-03-11T23:55:32.008Z,1.60
2019-03-11T23:57:59.886Z,1.60
